Time;durP1;ratioP1;P1;durP2;ratioP2;P2;SDS_P1;SDS_P2;PMS_P1;PMS_P2;Temp;Humidity;BMP_temperature;BMP_pressure;BME280_temperature;BME280_humidity;BME280_pressure;Samples;Min_cycle;Max_cycle;Signal;HPM_P1;HPM_P2
2024/01/05 00:01:01;;;;;;;0.50;0.50;;;10.30;90.00;;;;;;4963931;28;20209;-85
2024/01/05 00:03:32;;;;;;;0.73;0.60;;;10.40;90.00;;;;;;4967784;28;20201;-86
2024/01/05 00:06:01;;;;;;;2.53;1.27;;;10.40;90.00;;;;;;4964863;28;20209;-84
2024/01/05 00:08:30;;;;;;;2.27;1.20;;;10.40;90.00;;;;;;4967355;28;20360;-85
2024/01/05 00:10:58;;;;;;;4.20;0.80;;;10.30;89.80;;;;;;4969242;28;20229;-86
2024/01/05 00:13:27;;;;;;;1.23;1.00;;;10.30;89.70;;;;;;4971317;28;20206;-85
2024/01/05 00:15:56;;;;;;;1.00;0.93;;;10.30;89.60;;;;;;4971463;28;20224;-84
2024/01/05 00:18:25;;;;;;;1.67;0.90;;;10.30;89.50;;;;;;4973850;28;20202;-85
2024/01/05 00:20:55;;;;;;;0.50;0.50;;;10.30;89.50;;;;;;4970414;28;20217;-86
2024/01/05 00:23:24;;;;;;;0.60;0.60;;;10.30;89.40;;;;;;4973684;28;20201;-85
2024/01/05 00:25:54;;;;;;;1.37;1.03;;;10.30;89.40;;;;;;4967588;28;20213;-86
2024/01/05 00:28:23;;;;;;;0.73;0.63;;;10.20;89.30;;;;;;4970638;28;20229;-85
2024/01/05 00:30:52;;;;;;;0.97;0.87;;;10.20;89.30;;;;;;4969633;28;20567;-85
2024/01/05 00:33:21;;;;;;;0.43;0.43;;;10.20;89.30;;;;;;4971673;28;20289;-85
2024/01/05 00:35:50;;;;;;;2.00;0.60;;;10.10;89.30;;;;;;4966403;28;20190;-86
2024/01/05 00:38:20;;;;;;;0.40;0.40;;;10.20;89.40;;;;;;4968437;28;20205;-85
2024/01/05 00:40:49;;;;;;;1.03;0.83;;;10.10;89.30;;;;;;4970851;28;20209;-84
2024/01/05 00:43:18;;;;;;;0.77;0.77;;;10.20;89.40;;;;;;4966157;28;20209;-86
2024/01/05 00:45:46;;;;;;;0.73;0.73;;;10.20;89.10;;;;;;4971989;28;20220;-85
2024/01/05 00:48:15;;;;;;;1.30;1.20;;;10.20;89.00;;;;;;4969148;28;20218;-86
2024/01/05 00:50:47;;;;;;;0.60;0.60;;;10.20;88.90;;;;;;4977966;28;20228;-85
2024/01/05 00:53:16;;;;;;;3.57;3.07;;;10.10;88.70;;;;;;4970428;28;20696;-87
2024/01/05 00:55:46;;;;;;;0.97;0.97;;;10.20;88.80;;;;;;4969726;28;20252;-87
2024/01/05 00:58:15;;;;;;;2.77;1.63;;;10.20;88.80;;;;;;4981336;28;20285;-86
2024/01/05 01:00:44;;;;;;;1.30;1.20;;;10.10;88.50;;;;;;4975243;28;20997;-86
2024/01/05 01:03:13;;;;;;;1.97;1.63;;;10.10;88.70;;;;;;4974079;28;20286;-87
2024/01/05 01:05:42;;;;;;;2.03;1.53;;;10.10;88.60;;;;;;4973893;28;20695;-86
2024/01/05 01:08:13;;;;;;;0.50;0.50;;;10.10;88.60;;;;;;4973960;28;20207;-89
2024/01/05 01:10:42;;;;;;;1.43;1.03;;;10.10;88.80;;;;;;4979286;28;20206;-88
2024/01/05 01:13:13;;;;;;;1.47;1.37;;;10.10;88.90;;;;;;4978347;28;20288;-87
2024/01/05 01:15:41;;;;;;;2.80;1.77;;;10.00;88.90;;;;;;4972462;28;20205;-86
2024/01/05 01:18:10;;;;;;;0.63;0.60;;;10.10;88.90;;;;;;4984448;28;20575;-87
2024/01/05 01:20:39;;;;;;;1.60;1.50;;;10.00;88.90;;;;;;4978906;28;20202;-86
2024/01/05 01:23:08;;;;;;;2.50;1.77;;;10.00;88.80;;;;;;4968082;28;20688;-85
2024/01/05 01:25:37;;;;;;;1.43;1.23;;;10.00;88.90;;;;;;4967818;28;20268;-86
2024/01/05 01:28:06;;;;;;;1.50;1.23;;;10.00;88.90;;;;;;4972674;28;20209;-86
2024/01/05 01:30:36;;;;;;;1.17;0.93;;;10.00;88.80;;;;;;4976897;28;20308;-85
2024/01/05 01:33:05;;;;;;;1.17;1.17;;;10.00;88.80;;;;;;4976637;28;20546;-87
2024/01/05 01:35:34;;;;;;;0.97;0.73;;;10.00;88.70;;;;;;4967194;28;20614;-86
2024/01/05 01:38:03;;;;;;;2.87;1.40;;;10.00;88.80;;;;;;4973087;28;20308;-84
2024/01/05 01:40:32;;;;;;;4.43;0.60;;;10.00;88.60;;;;;;4970879;28;20190;-88
2024/01/05 01:43:01;;;;;;;0.90;0.90;;;10.10;88.60;;;;;;4969158;28;20233;-88
2024/01/05 01:45:30;;;;;;;1.07;0.97;;;10.00;88.50;;;;;;4973937;28;20241;-85
2024/01/05 01:48:00;;;;;;;1.37;1.27;;;10.00;88.30;;;;;;4966685;28;20217;-86
2024/01/05 01:50:29;;;;;;;0.83;0.80;;;10.00;88.20;;;;;;4977377;28;20205;-86
2024/01/05 01:52:58;;;;;;;0.93;0.70;;;9.90;88.30;;;;;;4969174;28;20658;-88
2024/01/05 01:55:27;;;;;;;0.60;0.60;;;10.00;88.30;;;;;;4977805;28;20228;-86
2024/01/05 01:57:56;;;;;;;0.73;0.50;;;10.00;88.20;;;;;;4970659;28;20284;-88
2024/01/05 02:00:25;;;;;;;0.70;0.67;;;10.00;88.00;;;;;;4967691;28;20257;-85
2024/01/05 02:02:55;;;;;;;1.23;1.13;;;10.00;88.00;;;;;;4978700;28;20277;-85
2024/01/05 02:05:27;;;;;;;2.20;1.43;;;10.00;87.60;;;;;;4977875;28;20186;-87
2024/01/05 02:07:56;;;;;;;0.70;0.70;;;10.00;87.60;;;;;;4970286;28;20635;-85
2024/01/05 02:10:24;;;;;;;0.53;0.53;;;9.90;87.40;;;;;;4972624;28;20178;-86
2024/01/05 02:12:53;;;;;;;2.20;1.80;;;10.00;87.50;;;;;;4969495;28;20324;-84
2024/01/05 02:15:22;;;;;;;1.00;1.00;;;10.00;87.20;;;;;;4979970;28;20717;-87
2024/01/05 02:17:51;;;;;;;0.90;0.87;;;10.00;87.10;;;;;;4971035;28;20210;-86
2024/01/05 02:20:20;;;;;;;3.07;1.27;;;10.00;87.00;;;;;;4971511;28;20277;-87
2024/01/05 02:22:57;;;;;;;0.60;0.60;;;10.00;86.80;;;;;;4974060;28;20201;-88
2024/01/05 02:25:27;;;;;;;0.60;0.60;;;9.90;86.80;;;;;;4974027;28;20232;-86
2024/01/05 02:27:56;;;;;;;0.30;0.30;;;9.90;86.80;;;;;;4970162;28;20743;-85
2024/01/05 02:30:25;;;;;;;1.13;1.03;;;9.80;87.00;;;;;;4968182;28;20201;-87
2024/01/05 02:32:54;;;;;;;1.30;1.20;;;9.80;87.20;;;;;;4968029;28;20232;-89
2024/01/05 02:35:23;;;;;;;1.07;0.97;;;9.80;87.20;;;;;;4975977;28;20201;-86
2024/01/05 02:37:51;;;;;;;6.80;1.53;;;9.80;87.40;;;;;;4976260;28;20225;-88
2024/01/05 02:40:20;;;;;;;0.63;0.63;;;9.80;87.40;;;;;;4973322;28;20197;-87
2024/01/05 02:42:50;;;;;;;0.30;0.30;;;9.80;87.40;;;;;;4968546;28;20237;-89
2024/01/05 02:45:20;;;;;;;0.90;0.90;;;9.80;87.40;;;;;;4970469;28;20240;-88
2024/01/05 02:47:49;;;;;;;0.70;0.70;;;9.70;87.70;;;;;;4971972;28;20202;-87
2024/01/05 02:50:19;;;;;;;1.20;1.17;;;9.70;87.70;;;;;;4973747;28;20296;-88
2024/01/05 02:52:48;;;;;;;0.40;0.40;;;9.70;87.80;;;;;;4974460;28;20324;-89
2024/01/05 02:55:17;;;;;;;0.50;0.50;;;9.70;87.80;;;;;;4977653;28;20202;-88
2024/01/05 02:57:46;;;;;;;1.10;1.03;;;9.70;87.80;;;;;;4978242;28;20277;-87
2024/01/05 03:00:17;;;;;;;2.27;0.87;;;9.70;88.00;;;;;;4973761;28;20221;-89
2024/01/05 03:02:46;;;;;;;0.60;0.60;;;9.60;88.10;;;;;;4972731;28;20205;-87
2024/01/05 03:05:15;;;;;;;1.07;0.97;;;9.60;88.10;;;;;;4974058;28;20206;-86
2024/01/05 03:07:44;;;;;;;0.37;0.37;;;9.60;88.30;;;;;;4972342;28;20206;-86
2024/01/05 03:10:12;;;;;;;1.37;1.27;;;9.60;88.20;;;;;;4972324;28;20202;-86
2024/01/05 03:12:41;;;;;;;0.87;0.87;;;9.70;88.30;;;;;;4970967;28;20217;-86
2024/01/05 03:15:10;;;;;;;0.60;0.60;;;9.70;88.30;;;;;;4968610;28;20182;-87
2024/01/05 03:17:41;;;;;;;2.60;1.57;;;9.70;88.30;;;;;;4970394;28;20229;-87
2024/01/05 03:20:11;;;;;;;0.73;0.60;;;9.70;88.20;;;;;;4971037;28;20206;-85
2024/01/05 03:22:39;;;;;;;0.80;0.80;;;9.80;88.20;;;;;;4974718;28;20635;-87
2024/01/05 03:25:09;;;;;;;0.90;0.90;;;9.80;88.00;;;;;;4968642;28;20244;-85
2024/01/05 03:27:37;;;;;;;1.03;0.50;;;9.80;87.90;;;;;;4975838;28;20208;-89
2024/01/05 03:30:09;;;;;;;1.53;1.23;;;9.80;88.00;;;;;;4970232;28;20245;-86
2024/01/05 03:32:40;;;;;;;6.40;0.93;;;9.80;88.00;;;;;;4973504;28;20308;-87
2024/01/05 03:35:09;;;;;;;1.93;1.40;;;9.80;88.00;;;;;;4975361;28;20277;-85
2024/01/05 03:37:38;;;;;;;2.20;2.00;;;9.80;87.90;;;;;;4967901;28;20268;-88
2024/01/05 03:40:08;;;;;;;0.40;0.40;;;9.80;87.80;;;;;;4903132;28;20315;-86
2024/01/05 03:42:37;;;;;;;0.70;0.70;;;9.80;87.90;;;;;;4956401;28;20245;-86
2024/01/05 03:45:06;;;;;;;1.57;1.47;;;9.80;87.90;;;;;;4946238;28;20198;-87
2024/01/05 03:47:35;;;;;;;4.37;1.07;;;9.80;88.00;;;;;;4953457;28;20207;-87
2024/01/05 03:50:06;;;;;;;3.23;0.80;;;9.80;88.10;;;;;;4953887;28;20214;-88
2024/01/05 03:52:35;;;;;;;0.77;0.77;;;9.80;88.00;;;;;;4953819;28;20443;-87
2024/01/05 03:55:04;;;;;;;0.50;0.50;;;9.70;88.00;;;;;;4950546;28;20232;-88
2024/01/05 03:57:32;;;;;;;10.13;2.30;;;9.70;88.00;;;;;;4950464;28;20329;-86
2024/01/05 04:00:01;;;;;;;13.73;1.07;;;9.70;88.00;;;;;;4950487;28;20593;-85
2024/01/05 04:02:30;;;;;;;2.30;1.47;;;9.60;88.10;;;;;;4954327;28;20289;-85
2024/01/05 04:04:59;;;;;;;0.70;0.70;;;9.50;88.30;;;;;;4947436;28;20249;-85
2024/01/05 04:07:29;;;;;;;1.07;0.97;;;9.50;88.60;;;;;;4951863;28;20206;-85
2024/01/05 04:09:58;;;;;;;4.43;1.63;;;9.50;88.70;;;;;;4955737;28;20683;-86
2024/01/05 04:12:27;;;;;;;0.40;0.40;;;9.40;89.00;;;;;;4951836;28;20206;-86
2024/01/05 04:14:55;;;;;;;0.70;0.70;;;9.40;89.00;;;;;;4951496;28;20222;-86
2024/01/05 04:17:24;;;;;;;0.50;0.50;;;9.40;89.10;;;;;;4955875;28;20258;-83
2024/01/05 04:19:53;;;;;;;3.47;1.27;;;9.40;89.10;;;;;;4949942;28;20294;-87
2024/01/05 04:22:21;;;;;;;2.93;1.43;;;9.40;89.10;;;;;;4951812;28;20189;-86
2024/01/05 04:24:52;;;;;;;0.73;0.73;;;9.40;89.20;;;;;;4950774;28;20715;-86
2024/01/05 04:27:20;;;;;;;0.47;0.47;;;9.40;89.20;;;;;;4952791;28;20214;-86
2024/01/05 04:29:52;;;;;;;0.90;0.70;;;9.40;89.30;;;;;;4956529;28;20241;-87
2024/01/05 04:32:20;;;;;;;2.97;1.47;;;9.40;89.20;;;;;;4954917;28;20199;-86
2024/01/05 04:34:49;;;;;;;3.30;1.27;;;9.40;89.30;;;;;;4950390;28;20230;-86
2024/01/05 04:37:18;;;;;;;0.70;0.70;;;9.30;89.30;;;;;;4956031;28;20261;-86
2024/01/05 04:39:47;;;;;;;0.50;0.50;;;9.30;89.40;;;;;;4954494;28;20198;-86
2024/01/05 04:42:17;;;;;;;1.27;1.17;;;9.30;89.60;;;;;;4956609;28;20282;-85
2024/01/05 04:44:45;;;;;;;1.40;1.30;;;9.30;89.70;;;;;;4945504;28;20230;-86
2024/01/05 04:47:14;;;;;;;3.07;0.70;;;9.20;89.80;;;;;;4953389;28;20238;-84
2024/01/05 04:49:43;;;;;;;0.63;0.63;;;9.20;89.80;;;;;;4953195;28;20277;-86
2024/01/05 04:52:13;;;;;;;0.87;0.87;;;9.20;89.80;;;;;;4951699;28;20586;-86
2024/01/05 04:54:42;;;;;;;2.67;1.73;;;9.20;89.90;;;;;;4953445;28;20219;-87
2024/01/05 04:57:10;;;;;;;1.53;1.43;;;9.20;89.90;;;;;;4951997;28;20682;-87
2024/01/05 04:59:45;;;;;;;0.30;0.30;;;9.20;89.90;;;;;;4945268;28;20868;-87
2024/01/05 05:02:14;;;;;;;0.80;0.80;;;9.20;89.90;;;;;;4945571;28;20246;-85
2024/01/05 05:04:43;;;;;;;1.90;1.23;;;9.20;90.00;;;;;;4950642;28;20202;-86
2024/01/05 05:07:14;;;;;;;0.57;0.50;;;9.20;90.00;;;;;;4944759;28;20199;-86
2024/01/05 05:09:43;;;;;;;1.23;1.17;;;9.10;90.00;;;;;;4944136;28;20717;-85
2024/01/05 05:12:12;;;;;;;1.23;1.13;;;9.20;90.10;;;;;;4951249;28;20214;-85
2024/01/05 05:14:42;;;;;;;0.67;0.63;;;9.20;90.00;;;;;;4954069;28;20218;-88
2024/01/05 05:17:10;;;;;;;2.67;1.73;;;9.20;90.00;;;;;;4953259;28;20289;-86
2024/01/05 05:19:39;;;;;;;2.10;1.23;;;9.20;90.00;;;;;;4952599;28;20255;-85
2024/01/05 05:22:08;;;;;;;2.63;1.93;;;9.20;90.00;;;;;;4956265;28;20261;-86
2024/01/05 05:24:37;;;;;;;0.93;0.93;;;9.20;90.00;;;;;;4950434;28;20202;-90
2024/01/05 05:27:06;;;;;;;0.90;0.87;;;9.20;90.10;;;;;;4952177;28;20216;-87
2024/01/05 05:29:35;;;;;;;0.50;0.50;;;9.20;90.20;;;;;;4948393;28;20235;-88
2024/01/05 05:32:06;;;;;;;3.87;1.57;;;9.10;90.20;;;;;;4954296;28;20198;-87
2024/01/05 05:34:35;;;;;;;0.83;0.83;;;9.10;90.30;;;;;;4952178;28;20226;-89
2024/01/05 05:37:04;;;;;;;0.60;0.60;;;9.10;90.30;;;;;;4951087;28;20202;-89
2024/01/05 05:39:32;;;;;;;1.57;1.30;;;9.10;90.20;;;;;;4951463;28;20297;-86
2024/01/05 05:42:01;;;;;;;0.77;0.77;;;9.10;90.60;;;;;;4956523;28;20210;-87
2024/01/05 05:44:30;;;;;;;0.30;0.30;;;9.10;90.20;;;;;;4947315;28;20255;-85
2024/01/05 05:46:59;;;;;;;1.53;1.43;;;9.10;90.10;;;;;;4954821;28;20301;-88
2024/01/05 05:49:29;;;;;;;1.57;1.10;;;9.10;90.00;;;;;;4957662;28;20213;-86
2024/01/05 05:51:58;;;;;;;2.37;1.43;;;9.20;90.00;;;;;;4955687;28;20675;-84
2024/01/05 05:54:27;;;;;;;1.50;0.80;;;9.20;90.00;;;;;;4953514;28;20273;-83
2024/01/05 05:56:56;;;;;;;1.40;1.27;;;9.20;90.00;;;;;;4948034;28;20655;-86
2024/01/05 05:59:25;;;;;;;0.50;0.50;;;9.20;89.80;;;;;;4954472;28;20313;-88
2024/01/05 06:01:54;;;;;;;0.80;0.80;;;9.20;89.70;;;;;;4950250;28;20266;-87
2024/01/05 06:04:23;;;;;;;0.40;0.40;;;9.10;89.50;;;;;;4955742;28;20628;-85
2024/01/05 06:06:53;;;;;;;0.50;0.50;;;9.20;89.30;;;;;;4954938;28;20258;-87
2024/01/05 06:09:22;;;;;;;2.40;1.03;;;9.20;89.20;;;;;;4947151;28;20662;-86
2024/01/05 06:11:51;;;;;;;2.57;1.23;;;9.20;88.90;;;;;;4955444;28;20206;-89
2024/01/05 06:14:20;;;;;;;0.73;0.73;;;9.20;88.50;;;;;;4958674;28;20308;-86
2024/01/05 06:16:49;;;;;;;0.40;0.40;;;9.20;88.30;;;;;;4960776;28;20190;-88
2024/01/05 06:19:19;;;;;;;0.50;0.50;;;9.30;88.10;;;;;;4948910;28;20213;-86
2024/01/05 06:21:48;;;;;;;1.57;1.00;;;9.30;87.80;;;;;;4954295;28;20254;-89
2024/01/05 06:24:18;;;;;;;1.40;0.80;;;9.30;87.50;;;;;;4955514;28;20212;-86
2024/01/05 06:26:47;;;;;;;0.87;0.87;;;9.40;87.40;;;;;;4955381;28;20209;-85
2024/01/05 06:29:16;;;;;;;1.13;0.90;;;9.40;86.90;;;;;;4948982;28;20765;-85
2024/01/05 06:31:45;;;;;;;0.63;0.63;;;9.40;86.70;;;;;;4956051;28;20206;-85
2024/01/05 06:34:14;;;;;;;0.80;0.80;;;9.50;86.50;;;;;;4950579;28;20199;-86
2024/01/05 06:36:43;;;;;;;3.93;1.73;;;9.60;86.50;;;;;;4953318;28;20205;-87
2024/01/05 06:39:12;;;;;;;1.37;1.13;;;9.60;85.50;;;;;;4954737;28;20214;-84
2024/01/05 06:41:43;;;;;;;0.80;0.63;;;9.70;85.00;;;;;;4956453;28;20207;-87
2024/01/05 06:44:12;;;;;;;1.07;1.07;;;9.80;85.30;;;;;;4953829;28;20183;-86
2024/01/05 06:46:41;;;;;;;0.40;0.40;;;9.80;84.60;;;;;;4956780;28;20283;-86
2024/01/05 06:49:10;;;;;;;1.73;1.33;;;9.90;84.40;;;;;;4953658;28;20279;-87
2024/01/05 06:51:39;;;;;;;0.40;0.40;;;10.00;83.90;;;;;;4958601;28;20195;-87
2024/01/05 06:54:09;;;;;;;1.17;1.00;;;10.00;84.10;;;;;;4950572;28;20305;-88
2024/01/05 06:56:37;;;;;;;0.70;0.70;;;10.10;84.20;;;;;;4953683;28;20207;-84
2024/01/05 06:59:09;;;;;;;0.40;0.40;;;10.10;84.40;;;;;;4955419;28;20721;-86
2024/01/05 07:01:37;;;;;;;0.67;0.67;;;10.10;83.90;;;;;;4950776;28;20245;-88
2024/01/05 07:04:07;;;;;;;0.80;0.80;;;10.20;83.80;;;;;;4957040;28;20264;-87
2024/01/05 07:06:41;;;;;;;0.50;0.50;;;10.20;83.60;;;;;;4953162;28;20233;-85
2024/01/05 07:09:13;;;;;;;0.30;0.30;;;10.30;83.10;;;;;;4954134;28;20209;-85
2024/01/05 07:11:43;;;;;;;1.57;0.93;;;10.40;83.00;;;;;;4954793;28;20254;-85
2024/01/05 07:14:14;;;;;;;2.43;0.43;;;10.40;82.60;;;;;;4955309;28;20591;-84
2024/01/05 07:16:45;;;;;;;0.93;0.93;;;10.50;82.80;;;;;;4952817;28;20214;-84
2024/01/05 07:19:17;;;;;;;0.67;0.67;;;10.60;82.50;;;;;;4955951;28;21473;-88
2024/01/05 07:21:47;;;;;;;0.30;0.30;;;10.60;82.30;;;;;;4951498;28;20210;-90
2024/01/05 07:24:17;;;;;;;0.93;0.77;;;10.60;82.10;;;;;;4948446;28;20203;-86
2024/01/05 07:27:00;;;;;;;0.77;0.77;;;10.60;82.30;;;;;;4954346;28;20584;-90
2024/01/05 07:29:33;;;;;;;0.73;0.73;;;10.70;82.30;;;;;;4955225;28;20233;-90
2024/01/05 07:34:47;;;;;;;0.40;0.40;;;10.80;82.90;;;;;;4958326;28;20205;-83
2024/01/05 07:37:17;;;;;;;0.60;0.60;;;10.80;83.10;;;;;;4956299;28;20557;-93
2024/01/05 07:39:48;;;;;;;0.67;0.67;;;10.90;83.40;;;;;;4962830;28;20256;-91
2024/01/05 07:42:16;;;;;;;0.80;0.80;;;10.90;83.40;;;;;;4953033;28;20470;-93
2024/01/05 07:44:47;;;;;;;0.83;0.70;;;11.00;84.00;;;;;;4955220;28;20198;-92
2024/01/05 07:47:16;;;;;;;2.27;1.93;;;11.00;84.40;;;;;;4957739;28;20210;-91
2024/01/05 07:49:45;;;;;;;0.87;0.70;;;10.90;84.60;;;;;;4950980;28;20286;-89
2024/01/05 07:52:14;;;;;;;1.43;1.33;;;11.00;84.70;;;;;;4951115;28;20284;-92
2024/01/05 07:54:43;;;;;;;0.90;0.83;;;11.00;84.80;;;;;;4954111;28;20205;-91
2024/01/05 07:57:12;;;;;;;0.80;0.80;;;11.10;84.90;;;;;;4953484;28;20217;-92
2024/01/05 07:59:41;;;;;;;0.57;0.57;;;11.20;84.90;;;;;;4949556;28;20222;-90
2024/01/05 08:02:13;;;;;;;1.50;1.27;;;11.20;84.60;;;;;;4956216;28;20222;-91
2024/01/05 08:04:42;;;;;;;2.23;1.43;;;11.30;84.70;;;;;;4953144;28;20206;-92
2024/01/05 08:07:12;;;;;;;0.70;0.70;;;11.40;84.60;;;;;;4955853;28;20206;-87
2024/01/05 08:09:43;;;;;;;0.63;0.60;;;11.40;84.40;;;;;;4955944;28;20206;-92
2024/01/05 08:12:12;;;;;;;1.07;0.97;;;11.50;84.00;;;;;;4954701;28;20273;-90
2024/01/05 08:14:45;;;;;;;0.60;0.60;;;11.50;83.70;;;;;;4952096;28;20199;-86
2024/01/05 08:17:20;;;;;;;0.73;0.73;;;11.60;84.00;;;;;;4955465;28;20629;-90
2024/01/05 08:19:49;;;;;;;4.33;0.70;;;11.70;84.10;;;;;;4953994;28;20202;-90
2024/01/05 08:22:18;;;;;;;1.33;1.23;;;11.80;84.20;;;;;;4957080;28;20213;-89
2024/01/05 08:24:47;;;;;;;0.83;0.70;;;11.90;84.80;;;;;;4955120;28;20205;-85
2024/01/05 08:27:16;;;;;;;2.37;1.07;;;11.90;84.10;;;;;;4949979;28;20207;-85
2024/01/05 08:29:45;;;;;;;0.93;0.93;;;12.00;83.60;;;;;;4955870;28;20210;-85
2024/01/05 08:32:15;;;;;;;4.43;1.60;;;12.10;83.60;;;;;;4955495;28;20580;-86
2024/01/05 08:34:44;;;;;;;0.60;0.50;;;12.20;83.60;;;;;;4956432;28;20553;-84
2024/01/05 08:37:13;;;;;;;0.80;0.80;;;12.30;83.30;;;;;;4950774;28;20226;-85
2024/01/05 08:39:42;;;;;;;1.63;1.43;;;12.40;81.90;;;;;;4953453;28;20284;-85
2024/01/05 08:42:11;;;;;;;1.17;0.87;;;12.50;81.30;;;;;;4949035;28;20550;-86
2024/01/05 08:44:41;;;;;;;0.37;0.30;;;12.60;80.10;;;;;;4954105;28;20207;-85
2024/01/05 08:47:09;;;;;;;0.47;0.47;;;12.80;81.00;;;;;;4954410;28;20232;-87
2024/01/05 08:49:40;;;;;;;2.30;1.40;;;12.90;80.40;;;;;;4955396;28;20293;-86
2024/01/05 08:52:08;;;;;;;0.87;0.50;;;13.00;79.50;;;;;;4951954;28;20219;-84
2024/01/05 08:54:40;;;;;;;0.83;0.70;;;13.10;79.00;;;;;;4951349;28;20209;-85
2024/01/05 08:57:11;;;;;;;0.60;0.60;;;13.20;78.00;;;;;;4953804;28;20293;-83
2024/01/05 08:59:43;;;;;;;0.33;0.30;;;13.30;77.50;;;;;;4951736;28;20288;-86
2024/01/05 09:02:12;;;;;;;0.30;0.30;;;13.40;75.20;;;;;;4953548;28;20242;-86
2024/01/05 09:04:43;;;;;;;1.13;1.00;;;13.50;72.70;;;;;;4952677;28;20202;-83
2024/01/05 09:07:13;;;;;;;0.23;0.23;;;13.60;72.30;;;;;;4948746;28;20231;-87
2024/01/05 09:09:43;;;;;;;0.33;0.33;;;13.80;70.20;;;;;;4955477;28;20273;-83
2024/01/05 09:12:12;;;;;;;1.53;0.83;;;13.90;71.10;;;;;;4959794;28;20727;-84
2024/01/05 09:14:41;;;;;;;0.40;0.40;;;14.00;70.20;;;;;;4952334;28;20198;-85
2024/01/05 09:17:10;;;;;;;0.43;0.43;;;14.10;70.10;;;;;;4953519;28;20224;-86
2024/01/05 09:19:39;;;;;;;1.13;0.70;;;14.20;68.60;;;;;;4955842;28;20759;-87
2024/01/05 09:22:12;;;;;;;1.30;1.20;;;14.30;69.30;;;;;;4954670;28;20294;-84
2024/01/05 09:24:41;;;;;;;0.40;0.40;;;14.40;68.40;;;;;;4954596;28;20214;-84
2024/01/05 09:27:10;;;;;;;0.30;0.30;;;14.40;68.80;;;;;;4952337;28;20577;-83
2024/01/05 09:29:47;;;;;;;0.77;0.63;;;14.50;69.90;;;;;;4953447;28;20224;-83
2024/01/05 09:32:16;;;;;;;0.43;0.43;;;14.60;70.50;;;;;;4954872;28;20270;-84
2024/01/05 09:34:45;;;;;;;0.73;0.70;;;14.70;70.50;;;;;;4957242;28;20240;-85
2024/01/05 09:37:15;;;;;;;0.77;0.77;;;14.70;70.90;;;;;;4955099;28;20701;-84
2024/01/05 09:39:45;;;;;;;1.33;0.77;;;14.80;70.50;;;;;;4961903;28;20210;-86
2024/01/05 09:42:13;;;;;;;0.73;0.47;;;14.80;69.40;;;;;;4957252;28;20203;-84
2024/01/05 09:44:46;;;;;;;0.30;0.30;;;14.90;70.70;;;;;;4950385;28;20297;-85
2024/01/05 09:47:16;;;;;;;1.60;1.33;;;14.90;69.30;;;;;;4956876;28;20234;-83
2024/01/05 09:49:45;;;;;;;1.70;0.77;;;14.90;69.70;;;;;;4955224;29;20202;-82
2024/01/05 09:52:17;;;;;;;1.17;0.70;;;15.00;70.30;;;;;;4944995;28;20317;-82
2024/01/05 09:54:46;;;;;;;0.40;0.40;;;15.10;70.70;;;;;;4951193;28;20618;-82
2024/01/05 09:57:18;;;;;;;0.50;0.50;;;15.10;69.70;;;;;;4956947;28;20226;-84
2024/01/05 09:59:48;;;;;;;1.30;0.50;;;15.20;68.50;;;;;;4955965;28;20229;-82
2024/01/05 10:02:22;;;;;;;0.77;0.60;;;15.20;69.50;;;;;;4956966;28;20225;-82
2024/01/05 10:04:51;;;;;;;2.33;1.90;;;15.20;68.80;;;;;;4948367;28;20343;-83
2024/01/05 10:07:21;;;;;;;0.40;0.40;;;15.20;69.70;;;;;;4948640;28;20202;-83
2024/01/05 10:09:51;;;;;;;2.53;1.30;;;15.20;70.20;;;;;;4948395;28;20206;-82
2024/01/05 10:12:21;;;;;;;1.23;0.83;;;15.30;70.40;;;;;;4953694;28;20649;-81
2024/01/05 10:14:52;;;;;;;0.50;0.50;;;15.30;70.20;;;;;;4950213;28;20274;-82
2024/01/05 10:17:20;;;;;;;2.23;1.07;;;15.30;70.70;;;;;;4962683;28;20289;-82
2024/01/05 10:19:49;;;;;;;0.30;0.30;;;15.40;70.60;;;;;;4949412;28;20289;-83
2024/01/05 10:22:18;;;;;;;2.30;1.07;;;15.50;71.30;;;;;;4957814;28;20678;-82
2024/01/05 10:24:48;;;;;;;0.50;0.50;;;15.50;71.60;;;;;;4950608;28;20214;-81
2024/01/05 10:27:17;;;;;;;0.43;0.43;;;15.50;70.70;;;;;;4953508;28;20198;-82
2024/01/05 10:29:57;;;;;;;0.53;0.53;;;15.60;69.20;;;;;;4956096;28;20293;-82
2024/01/05 10:32:26;;;;;;;1.03;0.57;;;15.60;69.50;;;;;;4954098;28;20202;-83
2024/01/05 10:34:54;;;;;;;1.00;0.53;;;15.70;69.50;;;;;;4954852;28;21030;-84
2024/01/05 10:37:23;;;;;;;0.30;0.30;;;15.70;67.50;;;;;;4956112;28;20222;-83
2024/01/05 10:39:54;;;;;;;1.10;0.93;;;15.80;67.20;;;;;;4955547;28;20207;-83
2024/01/05 10:42:25;;;;;;;0.20;0.20;;;15.90;68.20;;;;;;4955090;28;20202;-82
2024/01/05 10:44:55;;;;;;;0.50;0.43;;;15.90;67.50;;;;;;4953221;28;20214;-82
2024/01/05 10:47:25;;;;;;;0.40;0.40;;;16.00;67.40;;;;;;4949827;28;20218;-83
2024/01/05 10:49:55;;;;;;;0.40;0.40;;;16.10;67.00;;;;;;4953547;28;20289;-83
2024/01/05 10:52:35;;;;;;;0.60;0.53;;;16.10;64.80;;;;;;4950919;28;20213;-84
2024/01/05 10:55:09;;;;;;;0.43;0.30;;;16.20;65.10;;;;;;4949907;28;20313;-84
2024/01/05 10:57:38;;;;;;;0.40;0.40;;;16.20;63.90;;;;;;4952703;28;20272;-84
2024/01/05 11:00:13;;;;;;;0.33;0.33;;;16.30;63.70;;;;;;4954059;28;20230;-86
2024/01/05 11:02:47;;;;;;;0.40;0.40;;;16.30;64.30;;;;;;4957468;28;20646;-89
2024/01/05 11:05:16;;;;;;;0.30;0.30;;;16.30;62.80;;;;;;4958433;28;20210;-89
2024/01/05 11:07:46;;;;;;;0.93;0.70;;;16.40;61.80;;;;;;4959246;28;20253;-93
2024/01/05 11:10:31;;;;;;;0.60;0.60;;;16.40;63.00;;;;;;4951921;28;20662;-91
2024/01/05 11:13:34;;;;;;;0.40;0.40;;;16.50;63.60;;;;;;4953459;28;20215;-91
2024/01/05 11:16:19;;;;;;;0.43;0.43;;;16.50;64.40;;;;;;4961178;28;20205;-90
2024/01/05 11:19:19;;;;;;;0.47;0.47;;;16.60;64.10;;;;;;4952526;28;20309;-91
2024/01/05 11:21:55;;;;;;;1.70;1.07;;;16.60;64.70;;;;;;4953226;28;20206;-90
2024/01/05 11:24:25;;;;;;;1.57;1.10;;;16.60;64.70;;;;;;4954580;28;20293;-92
2024/01/05 11:26:56;;;;;;;0.30;0.30;;;16.70;64.80;;;;;;4960004;28;20238;-88
2024/01/05 11:29:51;;;;;;;2.33;1.70;;;16.70;65.20;;;;;;4951513;28;20194;-93
2024/01/05 11:32:42;;;;;;;1.07;0.87;;;16.70;65.40;;;;;;4957870;28;20194;-91
2024/01/05 11:35:42;;;;;;;1.33;0.83;;;16.70;65.70;;;;;;4954357;28;20274;-92
2024/01/05 11:38:30;;;;;;;0.63;0.57;;;16.80;65.40;;;;;;4941528;28;20233;-92
2024/01/05 11:41:00;;;;;;;1.30;0.83;;;16.80;65.50;;;;;;4953104;28;20203;-91
2024/01/05 11:43:37;;;;;;;0.67;0.40;;;16.80;65.50;;;;;;4956489;28;20298;-92
2024/01/05 11:46:07;;;;;;;1.87;0.80;;;16.90;65.70;;;;;;4954592;28;20209;-89
2024/01/05 11:48:46;;;;;;;0.63;0.63;;;16.90;66.00;;;;;;4953226;28;20206;-87
2024/01/05 11:51:15;;;;;;;0.40;0.40;;;16.90;65.00;;;;;;4956026;28;20199;-88
2024/01/05 11:53:46;;;;;;;0.43;0.33;;;17.00;64.90;;;;;;4953050;28;20655;-92
2024/01/05 11:56:17;;;;;;;0.37;0.37;;;17.00;63.70;;;;;;4953512;28;20225;-84
2024/01/05 11:58:48;;;;;;;0.67;0.50;;;17.00;63.90;;;;;;4949644;28;20223;-87
2024/01/05 12:01:17;;;;;;;0.50;0.50;;;17.10;64.00;;;;;;4943009;28;20202;-83
2024/01/05 12:03:46;;;;;;;0.40;0.40;;;17.10;64.10;;;;;;4944867;28;20460;-83
2024/01/05 12:06:16;;;;;;;0.50;0.50;;;17.10;63.90;;;;;;4948347;28;20203;-82
2024/01/05 12:08:48;;;;;;;1.33;1.17;;;17.10;64.00;;;;;;4949114;28;20214;-85
2024/01/05 12:11:17;;;;;;;1.80;0.83;;;17.20;64.40;;;;;;4944031;28;20205;-82
2024/01/05 12:13:47;;;;;;;0.40;0.40;;;17.30;64.00;;;;;;4944979;28;20677;-82
2024/01/05 12:16:28;;;;;;;0.20;0.20;;;17.30;63.60;;;;;;4956436;28;20206;-85
2024/01/05 12:18:56;;;;;;;1.63;0.53;;;17.30;63.60;;;;;;4952749;28;20649;-84
2024/01/05 12:21:25;;;;;;;0.63;0.60;;;17.30;63.60;;;;;;4943790;28;20198;-82
2024/01/05 12:23:59;;;;;;;1.27;0.57;;;17.40;63.40;;;;;;4949361;28;20669;-84
2024/01/05 12:26:29;;;;;;;0.50;0.50;;;17.40;62.70;;;;;;4950940;28;20218;-81
2024/01/05 12:29:08;;;;;;;0.50;0.50;;;17.40;62.80;;;;;;4942701;28;20305;-82
2024/01/05 12:31:38;;;;;;;0.97;0.50;;;17.40;61.70;;;;;;4950096;28;20253;-83
2024/01/05 12:34:07;;;;;;;0.37;0.37;;;17.40;59.40;;;;;;4945193;28;20209;-82
2024/01/05 12:36:36;;;;;;;0.37;0.37;;;17.40;59.00;;;;;;4951853;28;20202;-85
2024/01/05 12:39:11;;;;;;;0.50;0.50;;;17.50;59.50;;;;;;4948877;28;20840;-81
2024/01/05 12:41:45;;;;;;;0.37;0.37;;;17.50;60.40;;;;;;4949270;28;20261;-82
2024/01/05 12:44:17;;;;;;;0.77;0.67;;;17.60;61.10;;;;;;4949717;28;20199;-85
2024/01/05 12:46:47;;;;;;;0.30;0.30;;;17.50;61.40;;;;;;4956526;28;20206;-84
2024/01/05 12:49:20;;;;;;;1.33;0.70;;;17.60;61.30;;;;;;4950426;28;20249;-84
2024/01/05 12:51:50;;;;;;;0.60;0.60;;;17.70;60.70;;;;;;4945012;28;20203;-83
2024/01/05 12:54:20;;;;;;;0.50;0.50;;;17.60;59.60;;;;;;4946489;28;20297;-81
2024/01/05 12:56:54;;;;;;;0.40;0.40;;;17.70;60.40;;;;;;4954848;28;20210;-83
2024/01/05 12:59:25;;;;;;;0.50;0.50;;;17.70;60.50;;;;;;4952367;28;20222;-84
2024/01/05 13:02:00;;;;;;;0.47;0.47;;;17.70;60.80;;;;;;4951803;28;20328;-85
2024/01/05 13:04:30;;;;;;;0.83;0.53;;;17.70;60.50;;;;;;4947809;28;20564;-84
2024/01/05 13:07:08;;;;;;;0.33;0.33;;;17.70;60.70;;;;;;4956547;28;20206;-83
2024/01/05 13:09:43;;;;;;;0.65;0.65;;;17.70;60.50;;;;;;4952256;28;20225;-83